createdAt,value
2022-09-27T00:01:18.343Z,11.00
2022-09-27T00:13:55.027Z,10.70
2022-09-27T00:18:53.198Z,11.00
2022-09-27T00:23:50.026Z,10.50
2022-09-27T00:28:47.146Z,10.40
2022-09-27T00:31:23.977Z,10.40
2022-09-27T00:33:55.116Z,10.30
2022-09-27T00:36:25.817Z,10.40
2022-09-27T00:43:59.868Z,10.30
2022-09-27T00:46:35.368Z,10.30
2022-09-27T00:49:15.472Z,10.40
2022-09-27T00:54:19.685Z,10.40
2022-09-27T00:56:50.311Z,10.20
2022-09-27T00:59:26.711Z,10.50
2022-09-27T01:01:57.071Z,10.40
2022-09-27T01:04:31.682Z,10.40
2022-09-27T01:12:12.235Z,10.40
2022-09-27T01:15:05.626Z,10.40
2022-09-27T01:17:50.449Z,10.50
2022-09-27T01:21:13.883Z,10.50
2022-09-27T01:24:20.945Z,10.40
2022-09-27T01:30:26.275Z,10.40
2022-09-27T01:33:15.105Z,10.30
2022-09-27T01:38:44.503Z,10.30
2022-09-27T01:41:30.546Z,10.20
2022-09-27T01:46:54.227Z,10.20
2022-09-27T01:49:43.769Z,10.10
2022-09-27T01:52:15.565Z,10.10
2022-09-27T01:57:23.488Z,10.10
2022-09-27T02:00:00.132Z,10.10
2022-09-27T02:02:50.236Z,10.10
2022-09-27T02:05:56.458Z,10.10
2022-09-27T02:08:50.050Z,10.10
2022-09-27T02:11:44.529Z,10.10
2022-09-27T02:16:55.684Z,10.00
2022-09-27T02:19:42.234Z,10.00
2022-09-27T02:22:21.758Z,10.00
2022-09-27T02:24:58.221Z,10.00
2022-09-27T02:27:37.290Z,7.10
2022-09-27T02:30:15.788Z,9.90
2022-09-27T02:32:47.212Z,9.90
2022-09-27T02:35:23.543Z,9.90
2022-09-27T02:37:54.845Z,9.90
2022-09-27T02:40:24.881Z,9.90
2022-09-27T02:42:54.006Z,9.90
2022-09-27T02:45:23.029Z,9.90
2022-09-27T02:50:52.836Z,9.80
2022-09-27T02:54:01.679Z,9.90
2022-09-27T02:57:04.037Z,9.80
2022-09-27T03:00:10.079Z,9.80
2022-09-27T03:06:06.510Z,9.70
2022-09-27T03:08:35.628Z,9.70
2022-09-27T03:13:45.624Z,9.70
2022-09-27T03:16:23.202Z,9.70
2022-09-27T03:19:05.609Z,9.60
2022-09-27T03:21:55.667Z,9.70
2022-09-27T03:29:22.187Z,9.70
2022-09-27T03:39:46.707Z,9.60
2022-09-27T03:42:15.096Z,9.90
2022-09-27T03:44:48.272Z,9.70
2022-09-27T03:47:16.618Z,9.70
2022-09-27T03:52:15.436Z,9.70
2022-09-27T03:54:46.547Z,10.60
2022-09-27T03:57:15.122Z,9.80
2022-09-27T03:59:43.930Z,9.80
2022-09-27T04:02:41.498Z,10.80
2022-09-27T04:05:25.147Z,9.80
2022-09-27T04:08:06.455Z,9.80
2022-09-27T04:10:36.768Z,9.80
2022-09-27T04:13:05.440Z,9.80
2022-09-27T04:18:26.280Z,9.80
2022-09-27T04:26:21.204Z,10.00
2022-09-27T04:28:54.666Z,10.00
2022-09-27T04:31:24.097Z,10.00
2022-09-27T04:34:45.977Z,10.00
2022-09-27T04:37:20.298Z,9.40
2022-09-27T04:42:20.715Z,10.10
2022-09-27T04:44:49.023Z,10.10
2022-09-27T04:47:18.408Z,10.10
2022-09-27T04:49:46.810Z,10.00
2022-09-27T04:52:15.607Z,10.00
2022-09-27T04:59:45.565Z,9.90
2022-09-27T05:02:15.138Z,9.90
2022-09-27T05:07:47.332Z,9.90
2022-09-27T05:10:27.254Z,9.80
2022-09-27T05:12:55.491Z,9.80
2022-09-27T05:15:25.165Z,9.90
2022-09-27T05:18:22.987Z,9.90
2022-09-27T05:21:26.206Z,9.90
2022-09-27T05:23:54.875Z,9.90
2022-09-27T05:26:23.623Z,9.80
2022-09-27T05:31:22.503Z,9.80
2022-09-27T05:33:51.505Z,10.10
2022-09-27T05:39:08.087Z,9.50
2022-09-27T05:41:37.118Z,9.60
2022-09-27T05:44:06.014Z,9.50
2022-09-27T05:46:39.148Z,9.20
2022-09-27T05:49:07.962Z,8.10
2022-09-27T05:51:36.512Z,9.40
2022-09-27T05:54:04.985Z,9.40
2022-09-27T05:56:33.327Z,9.50
2022-09-27T06:02:29.954Z,9.50
2022-09-27T06:05:10.945Z,9.60
2022-09-27T06:07:40.689Z,9.50
2022-09-27T06:10:16.019Z,9.60
2022-09-27T06:12:44.364Z,8.10
2022-09-27T06:15:27.292Z,9.60
2022-09-27T06:17:57.234Z,8.50
2022-09-27T06:20:26.901Z,9.80
2022-09-27T06:22:56.221Z,9.80
2022-09-27T06:25:24.746Z,9.90
2022-09-27T06:28:04.409Z,9.80
2022-09-27T06:30:41.723Z,9.80
2022-09-27T06:33:25.561Z,10.10
2022-09-27T06:35:55.660Z,9.70
2022-09-27T06:38:25.939Z,9.70
2022-09-27T06:44:06.840Z,10.30
2022-09-27T06:46:57.603Z,10.30
2022-09-27T06:49:46.121Z,10.40
2022-09-27T06:52:17.178Z,10.10
2022-09-27T06:57:35.093Z,10.10
2022-09-27T07:00:22.131Z,10.10
2022-09-27T07:06:20.338Z,10.50
2022-09-27T07:08:53.682Z,10.70
2022-09-27T07:18:53.527Z,10.80
2022-09-27T07:21:23.172Z,10.70
2022-09-27T07:23:51.915Z,10.00
2022-09-27T07:26:20.534Z,10.80
2022-09-27T07:31:18.931Z,10.70
2022-09-27T07:36:15.962Z,10.60
2022-09-27T07:38:47.943Z,10.60
2022-09-27T07:41:19.809Z,10.50
2022-09-27T07:43:50.112Z,10.30
2022-09-27T07:46:20.330Z,10.50
2022-09-27T07:52:07.385Z,10.50
2022-09-27T07:57:32.546Z,10.60
2022-09-27T08:05:12.862Z,10.80
2022-09-27T08:07:42.428Z,10.90
2022-09-27T08:10:12.198Z,10.90
2022-09-27T08:12:41.077Z,11.00
2022-09-27T08:15:11.055Z,11.00
2022-09-27T08:17:39.446Z,11.00
2022-09-27T08:20:18.801Z,11.00
2022-09-27T08:23:08.009Z,10.90
2022-09-27T08:25:45.450Z,10.90
2022-09-27T08:28:33.766Z,10.80
2022-09-27T08:31:13.223Z,10.80
2022-09-27T08:38:42.275Z,11.10
2022-09-27T08:41:29.111Z,11.30
2022-09-27T08:44:15.641Z,11.50
2022-09-27T08:47:09.672Z,11.60
2022-09-27T08:52:20.930Z,13.20
2022-09-27T08:54:51.640Z,11.80
2022-09-27T08:57:24.796Z,11.80
2022-09-27T09:00:03.200Z,11.70
2022-09-27T09:05:09.416Z,11.80
2022-09-27T09:08:22.336Z,11.80
2022-09-27T09:11:32.550Z,11.70
2022-09-27T09:14:44.280Z,11.60
2022-09-27T09:17:28.052Z,11.90
2022-09-27T09:26:10.305Z,12.70
2022-09-27T09:29:01.912Z,12.50
2022-09-27T09:31:43.911Z,12.10
2022-09-27T09:42:11.390Z,11.60
2022-09-27T09:47:31.870Z,11.80
2022-09-27T09:50:05.853Z,12.00
2022-09-27T09:52:46.110Z,12.40
2022-09-27T09:55:21.173Z,12.60
2022-09-27T09:58:10.116Z,12.60
2022-09-27T10:00:48.797Z,12.50
2022-09-27T10:03:19.645Z,12.30
2022-09-27T10:05:48.788Z,12.10
2022-09-27T10:08:22.380Z,12.10
2022-09-27T10:10:59.539Z,11.70
2022-09-27T10:13:50.830Z,10.90
2022-09-27T10:16:22.274Z,11.20
2022-09-27T10:19:01.209Z,11.20
2022-09-27T10:24:14.982Z,11.80
2022-09-27T10:27:05.857Z,12.10
2022-09-27T10:29:39.767Z,12.30
2022-09-27T10:32:27.413Z,12.30
2022-09-27T10:35:36.951Z,12.30
2022-09-27T10:38:30.570Z,12.20
2022-09-27T10:41:25.220Z,12.00
2022-09-27T10:44:21.580Z,12.10
2022-09-27T10:46:58.903Z,12.20
2022-09-27T10:50:08.032Z,12.00
2022-09-27T10:53:08.723Z,11.90
2022-09-27T10:55:39.904Z,12.30
2022-09-27T11:00:59.138Z,12.90
2022-09-27T11:06:00.243Z,13.90
2022-09-27T11:08:37.073Z,13.20
2022-09-27T11:11:21.767Z,12.70
2022-09-27T11:16:49.769Z,13.40
2022-09-27T11:22:24.886Z,15.10
2022-09-27T11:25:16.089Z,14.70
2022-09-27T11:30:47.048Z,15.00
2022-09-27T11:34:03.104Z,14.30
2022-09-27T11:36:54.775Z,13.80
2022-09-27T11:39:33.935Z,14.50
2022-09-27T11:48:24.395Z,12.80
2022-09-27T11:51:17.136Z,12.30
2022-09-27T11:54:06.484Z,12.00
2022-09-27T11:56:49.440Z,12.00
2022-09-27T12:00:10.514Z,11.90
2022-09-27T12:03:21.269Z,11.40
2022-09-27T12:06:10.867Z,12.00
2022-09-27T12:11:39.193Z,14.00
2022-09-27T12:14:23.575Z,14.80
2022-09-27T12:16:58.943Z,15.20
2022-09-27T12:19:36.931Z,15.20
2022-09-27T12:22:46.653Z,15.70
2022-09-27T12:25:21.046Z,16.50
2022-09-27T12:28:14.305Z,16.90
2022-09-27T12:33:41.190Z,16.80
2022-09-27T12:36:19.367Z,16.70
2022-09-27T12:38:57.437Z,14.70
2022-09-27T12:41:28.488Z,14.30
2022-09-27T12:47:07.295Z,15.50
2022-09-27T12:49:58.957Z,16.70
2022-09-27T12:52:40.153Z,17.80
2022-09-27T12:55:48.207Z,16.70
2022-09-27T12:58:43.568Z,16.80
2022-09-27T13:01:32.107Z,17.30
2022-09-27T13:07:36.286Z,13.60
2022-09-27T13:10:36.477Z,13.10
2022-09-27T13:13:17.905Z,12.70
2022-09-27T13:24:41.860Z,12.00
2022-09-27T13:27:42.643Z,11.90
2022-09-27T13:30:46.228Z,12.10
2022-09-27T13:33:41.614Z,12.20
2022-09-27T13:36:29.581Z,12.30
2022-09-27T13:39:23.181Z,12.70
2022-09-27T13:42:31.715Z,13.10
2022-09-27T13:45:21.447Z,13.70
2022-09-27T13:47:54.901Z,13.80
2022-09-27T13:50:48.156Z,13.80
2022-09-27T13:53:29.128Z,13.50
2022-09-27T13:55:59.490Z,13.30
2022-09-27T13:58:44.914Z,13.10
2022-09-27T14:01:55.562Z,12.90
2022-09-27T14:04:41.964Z,12.70
2022-09-27T14:07:17.425Z,13.60
2022-09-27T14:09:52.598Z,12.50
2022-09-27T14:12:33.491Z,12.50
2022-09-27T14:17:34.984Z,12.80
2022-09-27T14:20:04.307Z,12.90
2022-09-27T14:22:34.806Z,13.40
2022-09-27T14:25:18.378Z,12.90
2022-09-27T14:27:51.470Z,12.90
2022-09-27T14:30:30.135Z,11.30
2022-09-27T14:33:30.463Z,12.70
2022-09-27T14:36:34.242Z,12.60
2022-09-27T14:39:13.126Z,12.50
2022-09-27T14:41:42.070Z,12.30
2022-09-27T14:44:18.723Z,12.20
2022-09-27T14:46:48.082Z,12.00
2022-09-27T14:49:23.147Z,11.70
2022-09-27T14:51:57.187Z,11.30
2022-09-27T14:57:00.312Z,9.80
2022-09-27T14:59:37.837Z,9.10
2022-09-27T15:04:51.378Z,8.70
2022-09-27T15:07:22.649Z,8.70
2022-09-27T15:09:52.562Z,8.70
2022-09-27T15:14:59.453Z,8.80
2022-09-27T15:20:26.147Z,9.10
2022-09-27T15:25:34.553Z,9.20
2022-09-27T15:28:06.474Z,9.30
2022-09-27T15:30:40.219Z,9.30
2022-09-27T15:33:23.643Z,9.30
2022-09-27T15:35:54.785Z,9.30
2022-09-27T15:38:31.197Z,9.40
2022-09-27T15:41:11.102Z,9.40
2022-09-27T15:43:45.566Z,9.50
2022-09-27T15:46:34.027Z,10.60
2022-09-27T15:49:34.635Z,10.00
2022-09-27T15:52:07.882Z,10.80
2022-09-27T15:57:07.205Z,11.80
2022-09-27T15:59:37.781Z,10.80
2022-09-27T16:02:21.326Z,10.50
2022-09-27T16:04:49.893Z,10.30
2022-09-27T16:07:18.251Z,10.10
2022-09-27T16:09:49.587Z,8.10
2022-09-27T16:12:17.975Z,9.50
2022-09-27T16:14:46.265Z,9.40
2022-09-27T16:17:16.186Z,9.30
2022-09-27T16:19:47.737Z,9.30
2022-09-27T16:22:15.985Z,10.40
2022-09-27T16:24:44.442Z,9.20
2022-09-27T16:27:12.805Z,9.10
2022-09-27T16:29:44.179Z,9.10
2022-09-27T16:32:12.743Z,9.10
2022-09-27T16:34:42.544Z,9.00
2022-09-27T16:37:11.221Z,9.10
2022-09-27T16:39:40.263Z,9.00
2022-09-27T16:42:10.004Z,9.00
2022-09-27T16:44:38.260Z,8.90
2022-09-27T16:49:53.501Z,8.70
2022-09-27T16:52:23.186Z,8.60
2022-09-27T16:54:51.659Z,8.70
2022-09-27T16:57:19.922Z,8.70
2022-09-27T17:02:18.180Z,8.60
2022-09-27T17:04:46.546Z,8.60
2022-09-27T17:07:15.052Z,8.60
2022-09-27T17:09:45.070Z,8.60
2022-09-27T17:12:14.565Z,9.60
2022-09-27T17:14:42.922Z,8.60
2022-09-27T17:17:11.576Z,8.60
2022-09-27T17:19:40.002Z,8.60
2022-09-27T17:22:09.340Z,8.60
2022-09-27T17:24:37.677Z,8.60
2022-09-27T17:27:07.525Z,8.50
2022-09-27T17:29:35.943Z,8.60
2022-09-27T17:32:04.305Z,8.60
2022-09-27T17:34:32.816Z,8.50
2022-09-27T17:37:01.240Z,8.40
2022-09-27T17:39:29.642Z,8.30
2022-09-27T17:41:59.777Z,8.30
2022-09-27T17:44:29.481Z,8.30
2022-09-27T17:47:11.833Z,8.30
2022-09-27T17:49:57.842Z,8.30
2022-09-27T17:52:26.904Z,8.30
2022-09-27T17:54:57.470Z,8.30
2022-09-27T17:57:26.088Z,8.40
2022-09-27T17:59:57.786Z,8.40
2022-09-27T18:02:26.400Z,8.40
2022-09-27T18:04:54.827Z,8.30
2022-09-27T18:07:23.345Z,8.40
2022-09-27T18:09:52.082Z,8.40
2022-09-27T18:12:20.459Z,8.30
2022-09-27T18:14:49.232Z,8.30
2022-09-27T18:17:19.240Z,8.30
2022-09-27T18:19:47.437Z,8.40
2022-09-27T18:22:15.721Z,8.50
2022-09-27T18:24:43.900Z,8.60
2022-09-27T18:27:15.844Z,8.70
2022-09-27T18:29:46.740Z,8.60
2022-09-27T18:32:14.968Z,9.70
2022-09-27T18:34:44.525Z,7.50
2022-09-27T18:37:12.781Z,8.60
2022-09-27T18:39:41.225Z,7.60
2022-09-27T18:42:10.018Z,8.60
2022-09-27T18:44:39.180Z,8.50
2022-09-27T18:49:36.162Z,8.50
2022-09-27T18:52:05.939Z,8.50
2022-09-27T18:54:35.237Z,8.40
2022-09-27T18:57:04.210Z,8.40
2022-09-27T19:02:02.843Z,8.40
2022-09-27T19:04:31.272Z,8.40
2022-09-27T19:09:29.609Z,8.30
2022-09-27T19:11:58.059Z,8.30
2022-09-27T19:14:26.898Z,8.30
2022-09-27T19:16:55.238Z,8.30
2022-09-27T19:19:24.230Z,8.40
2022-09-27T19:21:52.728Z,8.40
2022-09-27T19:26:53.716Z,8.40
2022-09-27T19:29:22.078Z,8.30
2022-09-27T19:34:19.489Z,8.30
2022-09-27T19:36:47.962Z,8.60
2022-09-27T19:39:16.433Z,8.30
2022-09-27T19:41:45.805Z,8.30
2022-09-27T19:44:15.513Z,8.30
2022-09-27T19:49:13.613Z,8.30
2022-09-27T19:51:41.913Z,8.30
2022-09-27T19:54:12.871Z,8.30
2022-09-27T19:56:41.232Z,8.30
2022-09-27T19:59:09.592Z,8.50
2022-09-27T20:01:41.085Z,8.30
2022-09-27T20:04:09.450Z,8.30
2022-09-27T20:06:37.868Z,8.30
2022-09-27T20:09:06.501Z,8.30
2022-09-27T20:11:34.907Z,8.30
2022-09-27T20:14:03.511Z,8.30
2022-09-27T20:16:34.043Z,8.30
2022-09-27T20:19:05.019Z,8.30
2022-09-27T20:21:34.244Z,8.30
2022-09-27T20:24:05.632Z,8.30
2022-09-27T20:26:36.555Z,8.40
2022-09-27T20:29:07.591Z,8.40
2022-09-27T20:31:41.227Z,8.40
2022-09-27T20:34:20.444Z,8.40
2022-09-27T20:36:50.011Z,8.40
2022-09-27T20:39:18.795Z,8.30
2022-09-27T20:41:48.115Z,8.30
2022-09-27T20:44:19.447Z,8.30
2022-09-27T20:46:51.132Z,8.30
2022-09-27T20:49:21.022Z,8.30
2022-09-27T20:51:51.158Z,8.90
2022-09-27T20:54:19.768Z,7.40
2022-09-27T20:56:49.849Z,8.40
2022-09-27T21:01:52.399Z,8.30
2022-09-27T21:04:23.457Z,8.30
2022-09-27T21:06:52.926Z,8.40
2022-09-27T21:09:21.186Z,8.70
2022-09-27T21:11:51.729Z,8.40
2022-09-27T21:14:20.387Z,7.50
2022-09-27T21:16:49.042Z,8.30
2022-09-27T21:19:17.689Z,8.30
2022-09-27T21:21:47.348Z,8.20
2022-09-27T21:24:15.761Z,8.70
2022-09-27T21:26:44.905Z,8.30
2022-09-27T21:29:15.225Z,8.20
2022-09-27T21:31:43.841Z,8.10
2022-09-27T21:34:12.115Z,8.10
2022-09-27T21:36:40.706Z,8.00
2022-09-27T21:39:10.989Z,7.90
2022-09-27T21:41:39.871Z,7.90
2022-09-27T21:44:09.278Z,7.80
2022-09-27T21:46:41.858Z,7.70
2022-09-27T21:51:41.793Z,7.60
2022-09-27T21:54:14.958Z,9.90
2022-09-27T21:56:44.781Z,7.50
2022-09-27T21:59:18.242Z,7.40
2022-09-27T22:01:47.834Z,7.40
2022-09-27T22:04:17.720Z,7.30
2022-09-27T22:06:45.980Z,7.30
2022-09-27T22:09:17.794Z,7.30
2022-09-27T22:11:47.740Z,7.30
2022-09-27T22:14:17.860Z,7.30
2022-09-27T22:16:46.224Z,7.30
2022-09-27T22:19:16.599Z,7.30
2022-09-27T22:21:44.993Z,7.20
2022-09-27T22:24:17.645Z,7.10
2022-09-27T22:26:49.914Z,7.00
2022-09-27T22:31:47.624Z,6.70
2022-09-27T22:34:28.666Z,6.50
2022-09-27T22:36:59.013Z,6.20
2022-09-27T22:39:29.278Z,6.10
2022-09-27T22:41:57.544Z,6.60
2022-09-27T22:44:25.753Z,5.90
2022-09-27T22:46:54.019Z,5.80
2022-09-27T22:49:22.832Z,5.70
2022-09-27T22:51:51.498Z,5.70
2022-09-27T22:54:20.003Z,5.70
2022-09-27T22:56:57.109Z,5.60
2022-09-27T22:59:26.095Z,5.50
2022-09-27T23:01:54.652Z,5.50
2022-09-27T23:04:22.899Z,5.60
2022-09-27T23:06:51.318Z,5.50
2022-09-27T23:09:19.644Z,5.50
2022-09-27T23:11:49.422Z,5.40
2022-09-27T23:14:17.698Z,5.50
2022-09-27T23:16:45.981Z,5.50
2022-09-27T23:19:16.226Z,5.60
2022-09-27T23:21:44.620Z,5.70
2022-09-27T23:29:11.515Z,5.90
2022-09-27T23:31:39.810Z,6.70
2022-09-27T23:34:08.045Z,6.00
2022-09-27T23:36:36.244Z,6.00
2022-09-27T23:39:04.549Z,6.00
2022-09-27T23:41:32.752Z,6.00
2022-09-27T23:44:01.088Z,5.90
2022-09-27T23:46:31.357Z,6.10
2022-09-27T23:48:59.621Z,6.10
2022-09-27T23:51:27.954Z,7.40
2022-09-27T23:56:25.923Z,6.20
2022-09-27T23:58:54.164Z,6.30
